Time;durP1;ratioP1;P1;durP2;ratioP2;P2;SDS_P1;SDS_P2;PMS_P1;PMS_P2;Temp;Humidity;BMP_temperature;BMP_pressure;BME280_temperature;BME280_humidity;BME280_pressure;Samples;Min_cycle;Max_cycle;Signal;HPM_P1;HPM_P2
2024/03/29 00:00:17;;;;;;;5.40;1.10;;;;;;;8.60;65.79;98837.48;108771;1265;22446;-84
2024/03/29 00:03:48;;;;;;;8.10;1.30;;;;;;;8.56;65.81;98847.26;108355;1268;22826;-84
2024/03/29 00:06:41;;;;;;;5.30;1.10;;;;;;;8.53;66.07;98856.10;108523;1262;24247;-84
2024/03/29 00:09:32;;;;;;;5.50;0.90;;;;;;;8.50;66.13;98856.39;108723;1268;22518;-85
2024/03/29 00:12:23;;;;;;;4.70;1.10;;;;;;;8.47;66.27;98861.42;108679;1258;26499;-84
2024/03/29 00:15:15;;;;;;;6.50;1.00;;;;;;;8.46;66.36;98869.40;108614;1268;23909;-86
2024/03/29 00:18:07;;;;;;;4.30;0.90;;;;;;;8.44;66.40;98877.43;108544;1257;24209;-84
2024/03/29 00:20:58;;;;;;;6.00;1.30;;;;;;;8.39;66.56;98880.65;108781;1266;22552;-85
2024/03/29 00:23:50;;;;;;;5.60;1.20;;;;;;;8.34;66.54;98886.99;108894;1263;24191;-84
2024/03/29 00:26:42;;;;;;;4.60;1.20;;;;;;;8.30;66.70;98892.13;108847;1257;22644;-84
2024/03/29 00:29:33;;;;;;;7.70;1.30;;;;;;;8.24;66.80;98903.19;108324;1268;24177;-84
2024/03/29 00:32:26;;;;;;;4.40;1.10;;;;;;;8.18;66.98;98910.71;108471;1268;25331;-84
2024/03/29 00:35:20;;;;;;;4.80;1.20;;;;;;;8.13;67.23;98917.55;108362;1268;25382;-85
2024/03/29 00:38:13;;;;;;;5.30;1.20;;;;;;;8.05;67.40;98920.52;108523;1266;22519;-83
2024/03/29 00:41:05;;;;;;;4.90;1.10;;;;;;;7.99;67.48;98926.69;108911;1266;22543;-84
2024/03/29 00:43:57;;;;;;;4.30;1.00;;;;;;;7.93;67.78;98942.35;108721;1264;22651;-85
2024/03/29 00:46:48;;;;;;;3.80;1.10;;;;;;;7.88;67.91;98948.02;108737;1267;25264;-84
2024/03/29 00:49:40;;;;;;;4.50;1.10;;;;;;;7.85;68.08;98953.09;108637;1265;22573;-84
2024/03/29 00:52:32;;;;;;;5.20;1.30;;;;;;;7.79;68.28;98956.67;108424;1259;22526;-85
2024/03/29 00:55:23;;;;;;;5.20;0.90;;;;;;;7.76;68.37;98961.19;108703;1266;22523;-84
2024/03/29 00:58:14;;;;;;;3.50;1.00;;;;;;;7.73;68.66;98972.63;108769;1266;25459;-84
2024/03/29 01:01:06;;;;;;;4.60;0.90;;;;;;;7.69;68.68;98981.63;108725;1266;25185;-85
2024/03/29 01:04:00;;;;;;;4.20;1.00;;;;;;;7.66;68.85;98988.77;108463;1268;22581;-85
2024/03/29 01:06:52;;;;;;;4.80;1.00;;;;;;;7.64;69.03;98998.50;108635;1261;22628;-84
2024/03/29 01:09:43;;;;;;;2.90;0.90;;;;;;;7.60;69.14;99006.98;108672;1268;22557;-86
2024/03/29 01:12:38;;;;;;;4.40;1.00;;;;;;;7.57;69.28;99003.81;108822;1263;23432;-85
2024/03/29 01:15:33;;;;;;;3.90;0.80;;;;;;;7.52;69.41;99010.27;108861;1268;23150;-84
2024/03/29 01:18:29;;;;;;;4.70;1.00;;;;;;;7.50;69.43;99013.33;109012;1266;25144;-83
2024/03/29 01:21:20;;;;;;;3.70;0.90;;;;;;;7.49;69.57;99019.73;108875;1266;23868;-84
2024/03/29 01:24:13;;;;;;;3.20;0.80;;;;;;;7.47;69.64;99019.88;108953;1263;24386;-86
2024/03/29 01:27:06;;;;;;;4.80;0.90;;;;;;;7.46;69.74;99022.73;109649;1265;23360;-85
2024/03/29 01:29:58;;;;;;;3.50;1.10;;;;;;;7.41;69.92;99025.85;108911;1262;23284;-86
2024/03/29 01:32:50;;;;;;;3.00;0.90;;;;;;;7.37;70.10;99024.39;108601;1266;22574;-86
2024/03/29 01:35:41;;;;;;;2.90;0.90;;;;;;;7.34;70.15;99024.66;108862;1264;26504;-84
2024/03/29 01:38:33;;;;;;;4.10;1.10;;;;;;;7.30;70.45;99026.88;109163;1265;23335;-86
2024/03/29 01:41:27;;;;;;;6.10;1.00;;;;;;;7.27;70.45;99025.48;109145;1262;25237;-85
2024/03/29 01:44:19;;;;;;;5.60;1.10;;;;;;;7.22;70.57;99030.27;108840;1255;25215;-84
2024/03/29 01:47:11;;;;;;;3.50;1.10;;;;;;;7.18;70.79;99028.39;108840;1265;24181;-85
2024/03/29 01:50:04;;;;;;;4.00;1.00;;;;;;;7.14;70.88;99023.64;108797;1264;23483;-83
2024/03/29 01:52:56;;;;;;;4.80;1.00;;;;;;;7.10;71.00;99021.77;108642;1262;22563;-85
2024/03/29 01:55:47;;;;;;;3.50;1.10;;;;;;;7.06;71.04;99023.79;108603;1265;24275;-84
2024/03/29 01:58:40;;;;;;;4.00;1.00;;;;;;;7.03;71.16;99024.17;109135;1265;23183;-85
2024/03/29 02:01:33;;;;;;;3.60;1.00;;;;;;;7.01;71.18;99025.17;108539;1262;22595;-84
2024/03/29 02:04:24;;;;;;;3.30;0.90;;;;;;;6.99;71.22;99035.11;108906;1268;22551;-86
2024/03/29 02:07:17;;;;;;;2.90;0.80;;;;;;;6.98;71.28;99029.14;108669;1267;22515;-84
2024/03/29 02:10:14;;;;;;;3.00;0.90;;;;;;;6.98;71.35;99028.74;108724;1267;22528;-84
2024/03/29 02:13:06;;;;;;;4.10;1.20;;;;;;;6.98;71.40;99033.02;108933;1259;22574;-85
2024/03/29 02:16:01;;;;;;;3.40;0.90;;;;;;;6.96;71.51;99031.48;108574;1268;25054;-84
2024/03/29 02:18:52;;;;;;;3.30;1.00;;;;;;;6.95;71.50;99031.61;108631;1268;25275;-84
2024/03/29 02:21:49;;;;;;;2.90;0.90;;;;;;;6.96;71.52;99033.14;108659;1268;22630;-85
2024/03/29 02:24:40;;;;;;;3.50;0.90;;;;;;;6.96;71.53;99036.63;108773;1267;22520;-84
2024/03/29 02:27:33;;;;;;;3.50;1.00;;;;;;;6.95;71.63;99041.60;109514;1268;22660;-84
2024/03/29 02:30:25;;;;;;;5.90;1.10;;;;;;;6.92;71.89;99044.94;110606;1267;22547;-84
2024/03/29 02:33:17;;;;;;;3.60;0.80;;;;;;;6.92;71.97;99051.55;109293;1266;22557;-84
2024/03/29 02:36:09;;;;;;;5.20;0.90;;;;;;;6.92;72.03;99050.69;109292;1260;22532;-86
2024/03/29 02:39:02;;;;;;;3.40;1.10;;;;;;;6.92;71.94;99059.30;109396;1265;24215;-83
2024/03/29 02:41:56;;;;;;;3.90;1.00;;;;;;;6.93;71.89;99068.10;108797;1260;22546;-83
2024/03/29 02:44:48;;;;;;;4.00;0.90;;;;;;;6.94;72.09;99077.20;108721;1267;22552;-84
2024/03/29 02:47:41;;;;;;;4.30;0.90;;;;;;;6.91;72.24;99083.40;108953;1265;24318;-85
2024/03/29 02:50:33;;;;;;;3.90;1.10;;;;;;;6.85;72.46;99079.74;108921;1266;22546;-84
2024/03/29 02:53:26;;;;;;;3.90;1.00;;;;;;;6.82;72.67;99084.38;108895;1265;24352;-85
2024/03/29 02:56:20;;;;;;;4.70;1.00;;;;;;;6.79;72.84;99088.58;109653;1268;22513;-84
2024/03/29 02:59:14;;;;;;;4.00;0.90;;;;;;;6.78;73.17;99087.76;109542;1264;22775;-84
2024/03/29 03:02:07;;;;;;;3.10;1.00;;;;;;;6.76;73.13;99088.73;108673;1267;22577;-85
2024/03/29 03:05:00;;;;;;;5.60;1.30;;;;;;;6.75;73.38;99088.16;108628;1268;25435;-84
2024/03/29 03:11:01;;;;;;;4.10;1.00;;;;;;;6.74;73.38;99088.39;108759;1264;22535;-84
2024/03/29 03:13:52;;;;;;;3.40;1.00;;;;;;;6.74;73.43;99087.90;108957;1268;23249;-85
2024/03/29 03:16:50;;;;;;;4.10;1.00;;;;;;;6.74;73.37;99085.12;109432;1265;22882;-86
2024/03/29 03:19:41;;;;;;;5.00;1.00;;;;;;;6.74;73.42;99094.34;108667;1268;22523;-83
2024/03/29 03:22:32;;;;;;;5.30;1.00;;;;;;;6.74;73.46;99094.34;108845;1259;25326;-83
2024/03/29 03:25:24;;;;;;;5.30;0.90;;;;;;;6.73;73.54;99103.75;109292;1267;22532;-84
2024/03/29 03:28:15;;;;;;;5.30;1.00;;;;;;;6.70;73.55;99104.46;108884;1261;22509;-85
2024/03/29 03:31:11;;;;;;;3.30;0.90;;;;;;;6.69;73.58;99100.88;109209;1267;22493;-86
2024/03/29 03:34:02;;;;;;;2.60;0.90;;;;;;;6.68;73.54;99108.07;108810;1267;24105;-83
2024/03/29 03:36:52;;;;;;;4.70;0.90;;;;;;;6.67;73.55;99101.54;108560;1268;22734;-83
2024/03/29 03:39:43;;;;;;;3.70;1.00;;;;;;;6.66;73.58;99091.30;108577;1268;22633;-84
2024/03/29 03:42:36;;;;;;;4.10;0.90;;;;;;;6.65;73.62;99087.30;109219;1265;22572;-84
2024/03/29 03:45:28;;;;;;;6.50;1.30;;;;;;;6.64;73.58;99087.63;108771;1268;24216;-84
2024/03/29 03:48:53;;;;;;;7.10;1.10;;;;;;;6.66;73.65;99085.19;104612;1312;543136;-84
2024/03/29 03:51:43;;;;;;;14.30;1.70;;;;;;;6.60;73.62;99079.40;107289;1281;22674;-85
2024/03/29 03:54:32;;;;;;;6.30;1.00;;;;;;;6.55;73.68;99081.23;108064;1269;25561;-83
2024/03/29 03:57:22;;;;;;;7.10;0.90;;;;;;;6.52;73.72;99089.30;107966;1276;22605;-84
2024/03/29 04:00:13;;;;;;;4.80;0.90;;;;;;;6.49;73.82;99093.54;107751;1276;22545;-83
2024/03/29 04:03:03;;;;;;;5.00;0.90;;;;;;;6.49;73.85;99094.75;110827;1264;185529;-86
2024/03/29 04:05:52;;;;;;;4.80;1.00;;;;;;;6.48;73.81;99107.73;111148;1266;22186;-85
2024/03/29 04:08:40;;;;;;;8.10;0.90;;;;;;;6.47;73.94;99118.61;111169;1262;22192;-85
2024/03/29 04:11:28;;;;;;;7.10;1.00;;;;;;;6.46;74.00;99130.84;111151;1265;22232;-85
2024/03/29 04:14:16;;;;;;;7.70;1.00;;;;;;;6.46;73.98;99135.41;108627;1270;25316;-83
2024/03/29 04:17:08;;;;;;;4.50;0.90;;;;;;;6.44;73.99;99127.63;108464;1269;22668;-85
2024/03/29 04:19:58;;;;;;;5.60;0.80;;;;;;;6.42;74.13;99128.45;108399;1267;24191;-84
2024/03/29 04:22:46;;;;;;;7.60;1.10;;;;;;;6.40;74.22;99124.63;108385;1262;25356;-82
2024/03/29 04:25:33;;;;;;;4.20;0.70;;;;;;;6.38;74.31;99125.66;108374;1266;22559;-82
2024/03/29 04:28:21;;;;;;;5.80;1.00;;;;;;;6.37;74.34;99127.01;108310;1269;23882;-82
2024/03/29 04:31:09;;;;;;;6.50;0.80;;;;;;;6.37;74.28;99131.50;108355;1262;24404;-82
2024/03/29 04:33:57;;;;;;;9.90;1.30;;;;;;;6.36;74.24;99140.75;108425;1269;25269;-81
2024/03/29 04:36:45;;;;;;;6.20;1.00;;;;;;;6.35;74.33;99144.70;108208;1271;22601;-81
2024/03/29 04:39:32;;;;;;;5.40;0.90;;;;;;;6.33;74.38;99147.80;108213;1271;24315;-82
2024/03/29 04:42:20;;;;;;;5.80;1.00;;;;;;;6.30;74.35;99157.23;108505;1261;22529;-82
2024/03/29 04:45:10;;;;;;;3.00;0.70;;;;;;;6.29;74.41;99163.65;108370;1269;23245;-82
2024/03/29 04:47:58;;;;;;;8.50;0.80;;;;;;;6.25;74.44;99159.39;108558;1262;23946;-82
2024/03/29 04:50:45;;;;;;;5.80;0.90;;;;;;;6.24;74.45;99163.50;108407;1269;25376;-82
2024/03/29 04:53:33;;;;;;;7.50;0.80;;;;;;;6.24;74.47;99164.91;108503;1269;22636;-81
2024/03/29 04:56:21;;;;;;;4.30;0.80;;;;;;;6.23;74.42;99167.41;108397;1269;23429;-82
2024/03/29 04:59:10;;;;;;;3.00;0.60;;;;;;;6.23;74.55;99175.67;108399;1264;22599;-81
2024/03/29 05:02:00;;;;;;;5.00;0.80;;;;;;;6.21;74.56;99174.77;108433;1269;25390;-82
2024/03/29 05:04:48;;;;;;;5.40;0.90;;;;;;;6.19;74.62;99162.19;108580;1266;25401;-82
2024/03/29 05:07:35;;;;;;;3.50;0.80;;;;;;;6.17;74.75;99161.16;108468;1265;22552;-82
2024/03/29 05:10:23;;;;;;;3.00;0.80;;;;;;;6.15;74.93;99166.95;108402;1262;22552;-82
2024/03/29 05:13:11;;;;;;;7.00;0.70;;;;;;;6.13;74.91;99168.58;108248;1269;22806;-81
2024/03/29 05:15:59;;;;;;;7.70;0.90;;;;;;;6.13;75.05;99170.73;108359;1269;22526;-82
2024/03/29 05:18:46;;;;;;;8.30;1.00;;;;;;;6.13;75.23;99173.65;108409;1264;22538;-82
2024/03/29 05:21:34;;;;;;;4.80;0.80;;;;;;;6.15;75.31;99171.17;108323;1270;22528;-83
2024/03/29 05:24:22;;;;;;;10.60;1.10;;;;;;;6.17;75.30;99172.02;108274;1266;22672;-82
2024/03/29 05:27:09;;;;;;;6.30;0.70;;;;;;;6.19;75.32;99176.55;108456;1263;22560;-82
2024/03/29 05:29:57;;;;;;;6.90;0.80;;;;;;;6.24;75.29;99190.10;108274;1269;24240;-82
2024/03/29 05:32:47;;;;;;;7.40;0.90;;;;;;;6.28;75.43;99183.48;108474;1267;25253;-82
2024/03/29 05:35:35;;;;;;;7.40;0.70;;;;;;;6.32;75.58;99182.10;108399;1262;22573;-82
2024/03/29 05:38:23;;;;;;;4.50;0.70;;;;;;;6.36;75.44;99182.58;108700;1269;24337;-82
2024/03/29 05:41:11;;;;;;;5.30;0.60;;;;;;;6.39;75.42;99177.43;108661;1269;22605;-82
2024/03/29 05:43:58;;;;;;;2.90;0.70;;;;;;;6.43;75.42;99181.24;108478;1269;22518;-84
2024/03/29 05:46:49;;;;;;;1.40;0.40;;;;;;;6.47;75.37;99174.77;108585;1262;22607;-83
2024/03/29 05:49:37;;;;;;;2.80;0.40;;;;;;;6.51;75.37;99169.30;108610;1262;23944;-82
2024/03/29 05:52:24;;;;;;;2.60;0.50;;;;;;;6.56;75.34;99164.63;108408;1269;22533;-84
2024/03/29 05:55:13;;;;;;;2.00;0.40;;;;;;;6.62;75.35;99167.56;108689;1269;22546;-83
2024/03/29 05:58:01;;;;;;;2.20;0.40;;;;;;;6.68;75.39;99187.79;108556;1259;25288;-83
2024/03/29 06:00:49;;;;;;;6.60;0.60;;;;;;;6.75;75.42;99188.52;108480;1269;22992;-82
2024/03/29 06:03:36;;;;;;;2.10;0.80;;;;;;;6.82;75.31;99190.90;108509;1270;22647;-82
2024/03/29 06:06:24;;;;;;;4.60;0.60;;;;;;;6.88;75.31;99180.73;108577;1266;22670;-82
2024/03/29 06:09:12;;;;;;;2.40;0.50;;;;;;;6.96;75.22;99177.02;108613;1262;24319;-83
2024/03/29 06:12:01;;;;;;;3.00;0.50;;;;;;;7.05;75.17;99177.81;108420;1263;22530;-83
2024/03/29 06:17:55;;;;;;;2.60;0.50;;;;;;;7.20;75.17;99173.46;108572;1259;26642;-83
2024/03/29 06:20:42;;;;;;;2.40;0.40;;;;;;;7.29;74.94;99179.80;108605;1269;22650;-83
2024/03/29 06:23:31;;;;;;;2.30;0.50;;;;;;;7.38;74.94;99184.67;108589;1263;22523;-83
2024/03/29 06:26:20;;;;;;;3.40;0.50;;;;;;;7.47;74.85;99189.05;108595;1262;22581;-85
2024/03/29 06:29:09;;;;;;;2.20;0.50;;;;;;;7.58;74.64;99196.94;108662;1247;23230;-83
2024/03/29 06:31:58;;;;;;;3.90;0.40;;;;;;;7.66;74.76;99207.50;108601;1263;25381;-83
2024/03/29 06:34:47;;;;;;;3.00;0.30;;;;;;;7.74;74.80;99206.19;108737;1263;22807;-83
2024/03/29 06:37:35;;;;;;;1.90;0.40;;;;;;;7.86;74.54;99207.32;108494;1268;22705;-84
2024/03/29 06:40:23;;;;;;;4.40;0.40;;;;;;;7.98;74.38;99199.20;108837;1269;22548;-84
2024/03/29 06:43:12;;;;;;;2.00;0.50;;;;;;;8.10;73.92;99195.85;108716;1263;22523;-84
2024/03/29 06:46:03;;;;;;;1.60;0.40;;;;;;;8.21;73.78;99187.44;108570;1270;25335;-83
2024/03/29 06:48:52;;;;;;;4.40;0.40;;;;;;;8.30;73.74;99184.73;108529;1270;23516;-84
2024/03/29 06:51:41;;;;;;;0.70;0.20;;;;;;;8.40;73.45;99180.74;108589;1269;22546;-84
2024/03/29 06:54:32;;;;;;;3.40;0.30;;;;;;;8.51;72.83;99174.08;108562;1265;22530;-85
2024/03/29 06:57:25;;;;;;;1.20;0.20;;;;;;;8.62;72.77;99182.14;108626;1265;22599;-84
2024/03/29 07:00:14;;;;;;;4.10;0.40;;;;;;;8.75;72.62;99183.48;108418;1270;22538;-82
2024/03/29 07:03:03;;;;;;;2.40;0.30;;;;;;;8.90;72.18;99185.84;108575;1269;25272;-83
2024/03/29 07:05:52;;;;;;;2.50;0.30;;;;;;;9.02;72.08;99192.87;108639;1269;24631;-84
2024/03/29 07:08:40;;;;;;;3.00;0.20;;;;;;;9.22;71.65;99199.66;108559;1269;22560;-83
2024/03/29 07:11:28;;;;;;;2.70;0.20;;;;;;;9.37;71.57;99207.48;108691;1269;24632;-83
2024/03/29 07:14:16;;;;;;;4.00;0.20;;;;;;;9.50;71.05;99211.92;108527;1251;22548;-83
2024/03/29 07:17:05;;;;;;;2.50;0.40;;;;;;;9.61;70.85;99225.16;108783;1265;25393;-83
2024/03/29 07:19:54;;;;;;;4.20;0.40;;;;;;;9.72;70.08;99231.21;108331;1269;23262;-84
2024/03/29 07:22:42;;;;;;;5.00;0.40;;;;;;;9.83;69.98;99230.32;108421;1266;22590;-83
2024/03/29 07:25:32;;;;;;;1.90;0.20;;;;;;;9.91;69.77;99235.92;108509;1263;22529;-83
2024/03/29 07:28:19;;;;;;;1.80;0.30;;;;;;;10.00;69.69;99237.34;108604;1262;25057;-83
2024/03/29 07:31:08;;;;;;;2.20;0.20;;;;;;;10.07;69.14;99238.91;108418;1269;22551;-84
2024/03/29 07:33:56;;;;;;;1.40;0.20;;;;;;;10.16;69.25;99251.15;108308;1270;25512;-83
2024/03/29 07:36:45;;;;;;;1.90;0.20;;;;;;;10.22;68.74;99247.84;108355;1265;24171;-83
2024/03/29 07:39:36;;;;;;;2.70;0.30;;;;;;;10.28;68.33;99251.81;108872;1263;22868;-86
2024/03/29 07:42:37;;;;;;;1.80;0.20;;;;;;;10.33;67.74;99247.88;111131;1264;22398;-90
2024/03/29 07:45:26;;;;;;;4.30;0.40;;;;;;;10.39;67.37;99247.70;108862;1266;22543;-86
2024/03/29 07:48:18;;;;;;;3.60;0.30;;;;;;;10.46;67.29;99245.80;108873;1269;22660;-86
2024/03/29 07:51:08;;;;;;;10.00;0.40;;;;;;;10.53;67.07;99231.16;111157;1262;22692;-87
2024/03/29 07:53:59;;;;;;;3.50;0.30;;;;;;;10.60;66.80;99234.92;111210;1263;22737;-87
2024/03/29 07:56:49;;;;;;;1.70;0.30;;;;;;;10.69;66.62;99238.27;111078;1264;22239;-88
2024/03/29 07:59:43;;;;;;;1.60;0.20;;;;;;;10.78;66.68;99242.64;111246;1266;22792;-90
2024/03/29 08:02:38;;;;;;;1.70;0.20;;;;;;;10.90;66.49;99245.41;111233;1263;22475;-90
2024/03/29 08:05:36;;;;;;;4.00;0.20;;;;;;;11.03;65.90;99261.87;111190;1269;22319;-88
2024/03/29 08:08:32;;;;;;;3.70;0.20;;;;;;;11.16;65.73;99264.77;111153;1267;22355;-89
2024/03/29 08:11:59;;;;;;;1.40;0.20;;;;;;;11.29;65.18;99267.08;109754;1263;22544;-89
2024/03/29 08:14:51;;;;;;;3.30;0.30;;;;;;;11.41;64.82;99274.85;111133;1263;22156;-90
2024/03/29 08:17:44;;;;;;;3.90;0.30;;;;;;;11.52;64.34;99278.00;111171;1268;22305;-90
2024/03/29 08:20:37;;;;;;;1.90;0.50;;;;;;;11.61;64.04;99279.52;110031;1262;25289;-87
2024/03/29 08:23:32;;;;;;;2.50;0.30;;;;;;;11.69;63.89;99277.35;111309;1267;22233;-88
2024/03/29 08:26:34;;;;;;;2.90;0.60;;;;;;;11.78;63.52;99282.59;109532;1269;22568;-88
2024/03/29 08:29:24;;;;;;;2.40;0.20;;;;;;;11.86;62.64;99282.63;111096;1267;22930;-86
2024/03/29 08:32:13;;;;;;;3.60;0.40;;;;;;;11.93;62.35;99280.13;111158;1263;22206;-86
2024/03/29 08:35:03;;;;;;;3.50;0.30;;;;;;;11.99;62.23;99285.66;111218;1266;22187;-88
2024/03/29 08:37:57;;;;;;;5.60;0.30;;;;;;;12.09;61.47;99288.02;111223;1262;22167;-89
2024/03/29 08:40:48;;;;;;;6.40;0.30;;;;;;;12.19;60.94;99285.77;110171;1262;22528;-90
2024/03/29 08:43:39;;;;;;;2.20;0.20;;;;;;;12.28;60.17;99283.85;111241;1269;22143;-88
2024/03/29 08:46:30;;;;;;;2.80;0.20;;;;;;;12.34;59.05;99287.55;111138;1263;22814;-88
2024/03/29 08:49:17;;;;;;;;;;;;;;;12.43;58.70;99278.77;111140;1262;22460;-85
2024/03/29 08:52:11;;;;;;;2.30;0.20;;;;;;;12.55;58.97;99271.94;109480;1263;25278;-87
2024/03/29 08:55:03;;;;;;;2.70;0.20;;;;;;;12.66;58.10;99274.42;109951;1268;23324;-86
2024/03/29 08:57:52;;;;;;;3.90;0.20;;;;;;;12.77;58.39;99267.86;109201;1269;22529;-87
2024/03/29 09:00:42;;;;;;;1.60;0.20;;;;;;;12.89;58.10;99262.54;108718;1257;25181;-86
2024/03/29 09:03:40;;;;;;;1.10;0.20;;;;;;;13.00;57.38;99258.75;111061;1266;23264;-89
2024/03/29 09:06:35;;;;;;;2.50;0.20;;;;;;;13.11;57.64;99257.55;110703;1262;22579;-85
2024/03/29 09:09:25;;;;;;;4.40;0.40;;;;;;;13.21;57.79;99254.52;108802;1267;25381;-85
2024/03/29 09:12:18;;;;;;;3.10;0.30;;;;;;;13.30;57.46;99258.31;108702;1268;25282;-85
2024/03/29 09:15:12;;;;;;;1.20;0.20;;;;;;;13.44;56.90;99261.98;111161;1263;23020;-85
2024/03/29 09:18:17;;;;;;;1.50;0.20;;;;;;;13.53;55.82;99257.94;111164;1256;22326;-88
2024/03/29 09:21:53;;;;;;;2.60;0.20;;;;;;;13.61;54.74;99260.35;110008;1262;23498;-88
2024/03/29 09:25:13;;;;;;;1.10;0.20;;;;;;;13.72;54.01;99258.52;108958;1267;22559;-88
2024/03/29 09:28:15;;;;;;;3.10;0.20;;;;;;;13.80;53.54;99250.64;109313;1269;22535;-90
2024/03/29 09:31:19;;;;;;;1.30;0.10;;;;;;;13.91;53.13;99246.40;110527;1263;25950;-88
2024/03/29 09:34:30;;;;;;;1.00;0.20;;;;;;;14.00;53.09;99245.85;109007;1261;22581;-88
2024/03/29 09:37:39;;;;;;;2.60;0.10;;;;;;;14.09;53.10;99246.30;111189;1262;22566;-88
2024/03/29 09:40:35;;;;;;;4.50;0.30;;;;;;;14.21;52.15;99248.63;111202;1269;22223;-87
2024/03/29 09:43:27;;;;;;;1.80;0.20;;;;;;;14.29;51.89;99238.80;111065;1262;22319;-89
2024/03/29 09:46:42;;;;;;;1.30;0.30;;;;;;;14.36;52.36;99227.95;111135;1263;22561;-90
2024/03/29 09:49:52;;;;;;;3.40;0.20;;;;;;;14.46;50.92;99230.06;108966;1267;22584;-86
2024/03/29 09:52:45;;;;;;;1.30;0.10;;;;;;;14.54;50.08;99229.25;108935;1262;23180;-87
2024/03/29 09:55:34;;;;;;;2.40;0.20;;;;;;;14.61;49.19;99226.51;111029;1265;22364;-88
2024/03/29 09:58:24;;;;;;;3.60;0.20;;;;;;;14.68;49.01;99228.55;111150;1268;22184;-87
2024/03/29 10:01:14;;;;;;;0.90;0.10;;;;;;;14.75;48.52;99230.09;109387;1267;23279;-87
2024/03/29 10:04:04;;;;;;;0.70;0.10;;;;;;;14.84;48.21;99226.70;108684;1269;22542;-87
2024/03/29 10:06:54;;;;;;;5.80;0.20;;;;;;;14.92;47.51;99223.91;108598;1269;22639;-87
2024/03/29 10:10:01;;;;;;;0.80;0.10;;;;;;;15.00;46.94;99226.01;108859;1252;22559;-89
2024/03/29 10:12:50;;;;;;;2.50;0.30;;;;;;;15.07;46.90;99223.33;109309;1269;22483;-87
2024/03/29 10:15:45;;;;;;;2.90;0.20;;;;;;;15.14;46.89;99214.84;109725;1266;22551;-89
2024/03/29 10:18:36;;;;;;;4.10;0.20;;;;;;;15.25;44.19;99222.68;109053;1269;22558;-88
2024/03/29 10:21:36;;;;;;;1.50;0.10;;;;;;;15.34;44.82;99218.41;110253;1262;23909;-91
2024/03/29 10:25:00;;;;;;;0.60;0.10;;;;;;;15.37;44.12;99214.23;108733;1270;25279;-86
2024/03/29 10:27:52;;;;;;;2.10;0.20;;;;;;;15.40;44.23;99213.48;108608;1269;25032;-86
2024/03/29 10:31:03;;;;;;;1.00;0.10;;;;;;;15.46;43.30;99204.16;105474;1299;542779;-86
2024/03/29 10:34:03;;;;;;;2.90;0.80;;;;;;;15.46;42.98;99197.50;110225;1281;22301;-89
2024/03/29 10:36:59;;;;;;;1.10;0.20;;;;;;;15.46;43.17;99202.79;110158;1280;22375;-88
2024/03/29 10:39:53;;;;;;;1.30;0.10;;;;;;;15.47;42.90;99196.80;110191;1278;22133;-85
2024/03/29 10:42:48;;;;;;;1.40;0.10;;;;;;;15.47;43.18;99188.91;110256;1281;22416;-89
2024/03/29 10:45:44;;;;;;;1.10;0.20;;;;;;;15.48;43.09;99175.29;110248;1276;536600;-87
2024/03/29 10:48:37;;;;;;;3.30;0.30;;;;;;;15.54;43.43;99163.27;110969;1272;22161;-86
2024/03/29 10:51:29;;;;;;;1.30;0.10;;;;;;;15.62;43.17;99157.80;111000;1267;22228;-88
2024/03/29 10:54:23;;;;;;;1.30;0.00;;;;;;;15.70;43.13;99151.46;110983;1269;23037;-89
2024/03/29 10:57:27;;;;;;;2.30;0.20;;;;;;;15.77;42.89;99144.96;110916;1272;22750;-87
2024/03/29 11:00:21;;;;;;;2.30;0.20;;;;;;;15.84;42.79;99141.98;111061;1264;22914;-88
2024/03/29 11:03:19;;;;;;;1.10;0.10;;;;;;;15.88;42.05;99135.08;109647;1266;22635;-89
2024/03/29 11:06:13;;;;;;;1.10;0.10;;;;;;;15.95;42.14;99136.05;109534;1266;26812;-88
2024/03/29 11:09:07;;;;;;;0.90;0.10;;;;;;;16.00;41.97;99144.01;109543;1269;23381;-86
2024/03/29 11:12:05;;;;;;;3.50;0.10;;;;;;;16.04;41.96;99142.95;109625;1268;22549;-86
2024/03/29 11:15:06;;;;;;;1.20;0.20;;;;;;;16.10;41.69;99140.35;109742;1266;25321;-85
2024/03/29 11:18:02;;;;;;;0.50;0.10;;;;;;;16.19;42.27;99134.20;109713;1270;22580;-87
2024/03/29 11:20:58;;;;;;;0.90;0.20;;;;;;;16.32;41.34;99132.70;111028;1265;23081;-87
2024/03/29 11:23:54;;;;;;;1.80;0.30;;;;;;;16.38;41.54;99134.13;110981;1267;22230;-90
2024/03/29 11:26:47;;;;;;;1.60;0.10;;;;;;;16.49;41.19;99139.45;111000;1269;22195;-89
2024/03/29 11:29:45;;;;;;;2.00;0.20;;;;;;;16.59;40.65;99136.61;111594;1257;22332;-89
2024/03/29 11:32:41;;;;;;;3.10;0.30;;;;;;;16.70;40.95;99125.69;111521;1259;23189;-89
2024/03/29 11:35:33;;;;;;;1.50;0.20;;;;;;;16.82;40.61;99120.35;111609;1260;22355;-88
2024/03/29 11:38:43;;;;;;;2.10;0.30;;;;;;;16.93;40.65;99126.33;106547;1299;542944;-88
2024/03/29 11:41:35;;;;;;;2.70;0.10;;;;;;;17.00;40.22;99127.44;108872;1283;22628;-86
2024/03/29 11:44:28;;;;;;;3.20;0.20;;;;;;;17.03;40.39;99129.58;108934;1276;22741;-86
2024/03/29 11:47:36;;;;;;;2.50;0.20;;;;;;;17.11;40.18;99128.85;106554;1299;542667;-87
2024/03/29 11:50:31;;;;;;;2.80;0.20;;;;;;;17.17;39.68;99138.73;109505;1275;22580;-86
2024/03/29 11:53:27;;;;;;;1.60;0.30;;;;;;;17.20;39.27;99135.96;109453;1274;23896;-86
2024/03/29 11:56:22;;;;;;;1.90;0.10;;;;;;;17.23;39.29;99139.67;110887;1272;23051;-86
2024/03/29 11:59:23;;;;;;;3.20;0.10;;;;;;;17.28;38.81;99131.55;110715;1273;22195;-85
2024/03/29 12:02:16;;;;;;;0.40;0.00;;;;;;;17.33;38.76;99133.63;110655;1269;175150;-86
2024/03/29 12:05:17;;;;;;;0.60;0.10;;;;;;;17.39;38.26;99129.65;111132;1270;22451;-86
2024/03/29 12:08:11;;;;;;;1.70;0.10;;;;;;;17.44;38.27;99130.29;110899;1269;22481;-85
2024/03/29 12:11:05;;;;;;;2.30;0.40;;;;;;;17.51;38.56;99126.30;111070;1270;22216;-86
2024/03/29 12:13:56;;;;;;;1.80;0.10;;;;;;;17.58;38.37;99124.77;110945;1269;22229;-87
2024/03/29 12:16:50;;;;;;;2.10;0.20;;;;;;;17.62;38.41;99113.36;110375;1270;22554;-87
2024/03/29 12:19:50;;;;;;;2.20;0.20;;;;;;;17.66;38.31;99112.23;109537;1269;23229;-85
2024/03/29 12:22:42;;;;;;;1.10;0.20;;;;;;;17.68;38.76;99112.02;109821;1269;23303;-85
2024/03/29 12:25:35;;;;;;;2.40;0.50;;;;;;;17.70;38.71;99112.48;109896;1264;22556;-85
2024/03/29 12:28:30;;;;;;;2.40;0.20;;;;;;;17.71;38.75;99117.61;109349;1264;22547;-85
2024/03/29 12:31:23;;;;;;;7.10;0.50;;;;;;;17.72;38.56;99106.98;107986;1268;22598;-84
2024/03/29 12:34:23;;;;;;;3.70;0.80;;;;;;;17.76;38.33;99104.98;108647;1260;23719;-84
2024/03/29 12:37:13;;;;;;;;;;;;;;;17.81;37.90;99098.52;108645;1268;22501;-84
2024/03/29 12:40:11;;;;;;;1.20;0.20;;;;;;;17.83;37.57;99088.56;109524;1266;22542;-86
2024/03/29 12:43:05;;;;;;;0.70;0.20;;;;;;;17.85;37.74;99085.80;111282;1268;22490;-85
2024/03/29 12:45:56;;;;;;;0.40;0.10;;;;;;;17.89;37.63;99081.30;111052;1266;23143;-86
2024/03/29 12:48:47;;;;;;;0.80;0.10;;;;;;;17.94;37.24;99077.79;111141;1263;23008;-85
2024/03/29 12:51:40;;;;;;;0.80;0.10;;;;;;;17.95;37.48;99086.57;111331;1268;23311;-86
2024/03/29 12:54:31;;;;;;;2.40;0.20;;;;;;;17.96;37.40;99081.52;111220;1269;22307;-86
2024/03/29 12:57:22;;;;;;;1.30;0.10;;;;;;;17.98;37.71;99082.62;111384;1266;22206;-86
2024/03/29 13:00:16;;;;;;;1.80;0.10;;;;;;;18.02;37.58;99083.95;111444;1266;22181;-85
2024/03/29 13:03:08;;;;;;;3.60;0.20;;;;;;;18.02;37.53;99080.90;111196;1268;23878;-85
2024/03/29 13:05:59;;;;;;;2.40;0.10;;;;;;;18.04;37.46;99087.89;111227;1266;22204;-86
2024/03/29 13:08:51;;;;;;;0.40;0.10;;;;;;;18.03;37.21;99089.27;111385;1266;22343;-86
2024/03/29 13:11:42;;;;;;;0.50;0.10;;;;;;;18.01;37.40;99082.48;111415;1256;23144;-85
2024/03/29 13:14:33;;;;;;;2.00;0.10;;;;;;;18.00;37.43;99079.54;111392;1265;22789;-86
2024/03/29 13:17:26;;;;;;;2.50;0.20;;;;;;;18.03;37.61;99075.55;110965;1267;22182;-85
2024/03/29 13:20:18;;;;;;;2.40;0.20;;;;;;;18.06;37.81;99077.46;111214;1266;22235;-86
2024/03/29 13:23:10;;;;;;;3.90;0.50;;;;;;;18.12;37.77;99068.86;111265;1265;22180;-86
2024/03/29 13:26:03;;;;;;;1.40;0.20;;;;;;;18.16;37.73;99059.50;111417;1266;22266;-86
2024/03/29 13:28:54;;;;;;;1.50;0.20;;;;;;;18.19;37.38;99052.27;111206;1266;22193;-87
2024/03/29 13:31:46;;;;;;;3.30;0.50;;;;;;;18.19;37.46;99050.77;111197;1266;22250;-86
2024/03/29 13:34:38;;;;;;;2.90;0.30;;;;;;;18.19;37.57;99057.20;111162;1266;22327;-86